Time;durP1;ratioP1;P1;durP2;ratioP2;P2;SDS_P1;SDS_P2;PMS_P1;PMS_P2;Temp;Humidity;BMP_temperature;BMP_pressure;BME280_temperature;BME280_humidity;BME280_pressure;Samples;Min_cycle;Max_cycle;Signal;HPM_P1;HPM_P2
2023/12/19 00:00:17;;;;;;;9.80;6.00;;;;;;;5.49;90.17;100343.90;220083;1254;140114;-68
2023/12/19 00:05:41;;;;;;;9.40;6.50;;;;;;;5.52;89.87;100330.64;220336;1254;140200;-68
2023/12/19 00:10:46;;;;;;;8.90;6.30;;;;;;;5.52;89.66;100350.10;219232;1254;140459;-67
2023/12/19 00:15:51;;;;;;;13.00;6.80;;;;;;;5.53;89.43;100339.45;219006;1254;139688;-68
2023/12/19 00:20:55;;;;;;;10.90;7.20;;;;;;;5.54;89.33;100361.58;219475;1254;139514;-69
2023/12/19 00:25:59;;;;;;;15.90;12.20;;;;;;;5.54;89.24;100333.35;218742;1254;140545;-69
2023/12/19 00:31:04;;;;;;;10.40;8.60;;;;;;;5.52;89.01;100323.00;219829;1254;140488;-68
2023/12/19 00:36:16;;;;;;;12.20;10.10;;;;;;;5.49;88.45;100317.23;218879;1259;140171;-68
2023/12/19 00:41:21;;;;;;;13.40;7.40;;;;;;;5.46;88.58;100302.33;218875;1255;209665;-68
2023/12/19 00:46:25;;;;;;;12.60;7.70;;;;;;;5.38;88.13;100316.08;218591;1254;139464;-66
2023/12/19 00:51:32;;;;;;;11.00;7.20;;;;;;;5.36;88.16;100331.14;218072;1257;139572;-67
2023/12/19 00:56:40;;;;;;;15.30;8.40;;;;;;;5.37;87.85;100332.95;218545;1254;139302;-68
2023/12/19 01:01:46;;;;;;;7.40;4.90;;;;;;;5.42;88.10;100336.42;218229;1254;140007;-67
2023/12/19 01:06:50;;;;;;;13.40;7.40;;;;;;;5.44;87.80;100329.65;218113;1254;139589;-66
2023/12/19 01:11:55;;;;;;;11.40;7.70;;;;;;;5.44;87.91;100322.45;218230;1257;139458;-67
2023/12/19 01:17:00;;;;;;;12.40;7.90;;;;;;;5.44;87.07;100327.33;218600;1257;141170;-69
2023/12/19 01:22:05;;;;;;;11.40;8.30;;;;;;;5.45;86.92;100332.34;218531;1257;140177;-69
2023/12/19 01:27:09;;;;;;;12.30;8.00;;;;;;;5.45;86.39;100329.17;218853;1254;139487;-68
2023/12/19 01:32:14;;;;;;;12.50;7.70;;;;;;;5.46;85.88;100333.17;219062;1254;223286;-68
2023/12/19 01:37:19;;;;;;;14.40;8.50;;;;;;;5.44;86.03;100314.84;218857;1254;220337;-67
2023/12/19 01:42:24;;;;;;;13.60;8.00;;;;;;;5.41;85.36;100290.52;219668;1254;140808;-69
2023/12/19 01:47:29;;;;;;;11.30;8.00;;;;;;;5.40;85.53;100270.86;219920;1254;140425;-69
2023/12/19 01:52:36;;;;;;;14.80;9.10;;;;;;;5.40;84.81;100270.09;218734;1254;140362;-68
2023/12/19 01:57:42;;;;;;;14.70;8.10;;;;;;;5.37;84.62;100259.98;220450;1254;141932;-68
2023/12/19 02:02:50;;;;;;;12.00;6.70;;;;;;;5.35;84.46;100242.95;219682;1254;139641;-70
2023/12/19 02:07:56;;;;;;;16.20;8.00;;;;;;;5.34;84.01;100240.42;218694;1255;140527;-66
2023/12/19 02:13:01;;;;;;;26.40;14.40;;;;;;;5.34;83.81;100235.51;218528;1255;140544;-68
2023/12/19 02:18:22;;;;;;;37.00;19.80;;;;;;;5.33;83.15;100238.65;219804;1254;141036;-68
2023/12/19 02:23:26;;;;;;;20.00;11.40;;;;;;;5.34;83.09;100236.23;219400;1254;141120;-67
2023/12/19 02:28:31;;;;;;;14.60;7.80;;;;;;;5.36;82.78;100228.40;219841;1254;139686;-68
2023/12/19 02:33:35;;;;;;;9.10;6.20;;;;;;;5.38;82.17;100229.77;219391;1259;140541;-68
2023/12/19 02:38:41;;;;;;;9.30;6.50;;;;;;;5.37;81.88;100217.02;219481;1254;139424;-67
2023/12/19 02:43:45;;;;;;;9.00;7.70;;;;;;;5.34;81.65;100213.70;219659;1254;139248;-67
2023/12/19 02:48:59;;;;;;;10.80;6.20;;;;;;;5.30;81.46;100215.73;218491;1254;139612;-67
2023/12/19 02:54:03;;;;;;;17.80;8.10;;;;;;;5.27;81.10;100200.61;218590;1254;140097;-68
2023/12/19 02:59:08;;;;;;;9.70;7.20;;;;;;;5.26;81.27;100191.61;218805;1254;139522;-70
2023/12/19 03:04:13;;;;;;;13.20;6.90;;;;;;;5.25;81.02;100189.94;218585;1254;142205;-70
2023/12/19 03:09:18;;;;;;;11.70;6.40;;;;;;;5.26;80.85;100188.63;220018;1254;139465;-68
2023/12/19 03:14:24;;;;;;;14.80;7.10;;;;;;;5.24;80.67;100183.70;217837;1254;139296;-67
2023/12/19 03:19:29;;;;;;;9.40;6.80;;;;;;;5.24;80.37;100179.91;219246;1254;139255;-69
2023/12/19 03:24:35;;;;;;;11.80;6.30;;;;;;;5.25;80.23;100177.66;218845;1254;139296;-68
2023/12/19 03:29:41;;;;;;;12.70;6.80;;;;;;;5.27;80.05;100156.23;218134;1254;139743;-68
2023/12/19 03:34:47;;;;;;;6.50;4.80;;;;;;;5.30;79.89;100149.98;219041;1254;248301;-69
2023/12/19 03:39:51;;;;;;;10.10;6.30;;;;;;;5.33;79.91;100150.56;218243;1254;140397;-70
2023/12/19 03:44:56;;;;;;;7.20;5.30;;;;;;;5.32;79.20;100164.10;218560;1254;237846;-68
2023/12/19 03:50:00;;;;;;;9.80;5.80;;;;;;;5.29;79.06;100170.58;218272;1254;139216;-68
2023/12/19 03:55:05;;;;;;;10.70;7.40;;;;;;;5.24;78.81;100162.89;220058;1254;140551;-68
2023/12/19 04:00:09;;;;;;;10.40;6.00;;;;;;;5.20;78.35;100145.65;220676;1254;140118;-69
2023/12/19 04:05:14;;;;;;;9.70;6.90;;;;;;;5.16;78.36;100133.02;220816;1253;140443;-69
2023/12/19 04:10:18;;;;;;;10.40;6.20;;;;;;;5.13;78.17;100143.77;220969;1253;140946;-69
2023/12/19 04:15:25;;;;;;;8.70;4.60;;;;;;;5.13;78.09;100148.08;221170;1253;139493;-68
2023/12/19 04:20:30;;;;;;;7.10;5.30;;;;;;;5.13;77.64;100154.17;220054;1254;140009;-69
2023/12/19 04:25:35;;;;;;;11.50;7.50;;;;;;;5.09;77.62;100160.04;218522;1254;139386;-68
2023/12/19 04:30:41;;;;;;;8.90;5.40;;;;;;;5.11;77.72;100152.61;220250;1254;139487;-68
2023/12/19 04:35:46;;;;;;;9.40;5.50;;;;;;;5.09;77.55;100164.23;218806;1254;140210;-68
2023/12/19 04:40:50;;;;;;;8.40;5.10;;;;;;;5.12;77.36;100158.85;218559;1254;139333;-68
2023/12/19 04:45:53;;;;;;;7.10;4.60;;;;;;;5.14;77.14;100144.96;219355;1254;140149;-68
2023/12/19 04:50:58;;;;;;;9.30;5.80;;;;;;;5.14;76.94;100139.84;218347;1253;142552;-68
2023/12/19 04:56:02;;;;;;;5.80;4.60;;;;;;;5.15;76.83;100136.23;219572;1253;139387;-68
2023/12/19 05:01:08;;;;;;;8.70;4.90;;;;;;;5.17;76.64;100146.58;218636;1255;139274;-68
2023/12/19 05:06:17;;;;;;;8.00;5.30;;;;;;;5.20;76.88;100158.05;219069;1254;139246;-69
2023/12/19 05:11:22;;;;;;;6.10;4.80;;;;;;;5.27;76.85;100165.95;218597;1254;139791;-68
2023/12/19 05:16:28;;;;;;;6.90;4.40;;;;;;;5.33;76.16;100153.86;219276;1253;140178;-68
2023/12/19 05:21:39;;;;;;;7.70;3.60;;;;;;;5.41;76.54;100156.95;219439;1254;139116;-69
2023/12/19 05:26:43;;;;;;;6.80;5.00;;;;;;;5.48;76.20;100152.77;218652;1256;139474;-69
2023/12/19 05:31:47;;;;;;;5.60;3.20;;;;;;;5.55;76.20;100143.58;219614;1253;140781;-69
2023/12/19 05:36:51;;;;;;;5.50;4.80;;;;;;;5.61;75.84;100138.87;219706;1253;141377;-68
2023/12/19 05:41:56;;;;;;;4.80;3.90;;;;;;;5.69;75.91;100116.27;218728;1253;139453;-68
2023/12/19 05:47:03;;;;;;;8.50;4.00;;;;;;;5.74;75.79;100104.09;220353;1254;140654;-69
2023/12/19 05:52:09;;;;;;;6.00;3.80;;;;;;;5.79;75.63;100110.40;220501;1255;140214;-70
2023/12/19 05:57:13;;;;;;;5.40;4.00;;;;;;;5.85;75.41;100111.88;220818;1254;140281;-69
2023/12/19 06:02:20;;;;;;;4.90;3.00;;;;;;;5.92;75.41;100112.11;220897;1254;140317;-69
2023/12/19 06:07:26;;;;;;;6.80;3.40;;;;;;;5.98;75.21;100111.67;219099;1256;139543;-68
2023/12/19 06:12:31;;;;;;;6.30;4.80;;;;;;;6.05;74.75;100100.55;220873;1254;141261;-69
2023/12/19 06:17:41;;;;;;;3.80;3.30;;;;;;;6.11;74.83;100096.94;220583;1254;141143;-69
2023/12/19 06:22:45;;;;;;;6.40;3.20;;;;;;;6.17;74.45;100104.58;219444;1253;139492;-68
2023/12/19 06:27:51;;;;;;;10.10;3.90;;;;;;;6.22;74.26;100110.63;219839;1253;139867;-69
2023/12/19 06:32:57;;;;;;;6.10;3.50;;;;;;;6.26;74.07;100110.73;218470;1254;140131;-68
2023/12/19 06:38:02;;;;;;;5.50;4.20;;;;;;;6.28;73.79;100117.63;219338;1253;140315;-68
2023/12/19 06:43:10;;;;;;;5.00;3.00;;;;;;;6.31;74.00;100104.73;218927;1254;139614;-68
2023/12/19 06:48:15;;;;;;;4.80;4.30;;;;;;;6.31;73.91;100094.30;219079;1253;142612;-68
2023/12/19 06:53:19;;;;;;;4.30;3.90;;;;;;;6.31;73.89;100085.99;218153;1254;139421;-69
2023/12/19 06:58:26;;;;;;;4.40;3.60;;;;;;;6.32;74.04;100104.54;218361;1258;140528;-68
2023/12/19 07:03:31;;;;;;;4.50;3.40;;;;;;;6.35;74.46;100112.82;218212;1254;139461;-68
2023/12/19 07:08:37;;;;;;;8.60;5.30;;;;;;;6.36;74.23;100115.15;218720;1254;141498;-68
2023/12/19 07:13:51;;;;;;;6.10;4.60;;;;;;;6.37;74.34;100115.39;218196;1254;141619;-68
2023/12/19 07:18:56;;;;;;;7.70;4.50;;;;;;;6.35;74.32;100121.33;219536;1253;139682;-69
2023/12/19 07:24:00;;;;;;;6.60;3.80;;;;;;;6.36;74.93;100116.77;219350;1254;140441;-69
2023/12/19 07:29:07;;;;;;;6.50;4.20;;;;;;;6.39;75.18;100120.33;218561;1254;140894;-69
2023/12/19 07:34:12;;;;;;;12.80;5.40;;;;;;;6.41;75.78;100115.20;218550;1254;139691;-68
2023/12/19 07:39:18;;;;;;;6.30;4.30;;;;;;;6.41;76.73;100101.96;218091;1257;139763;-68
2023/12/19 07:44:24;;;;;;;10.60;5.10;;;;;;;6.42;77.07;100101.39;219774;1253;139917;-69
2023/12/19 07:49:30;;;;;;;4.70;4.30;;;;;;;6.42;77.87;100098.80;218937;1254;140681;-69
2023/12/19 07:54:36;;;;;;;4.80;4.10;;;;;;;6.47;77.83;100092.63;219147;1253;141276;-69
2023/12/19 07:59:41;;;;;;;8.80;5.00;;;;;;;6.48;78.22;100091.25;220360;1254;139297;-69
2023/12/19 08:04:47;;;;;;;6.00;4.70;;;;;;;6.50;78.24;100083.06;221040;1253;139881;-69
2023/12/19 08:09:51;;;;;;;5.60;4.30;;;;;;;6.54;78.47;100081.61;220927;1254;139646;-69
2023/12/19 08:14:56;;;;;;;6.30;4.50;;;;;;;6.57;78.36;100081.26;220744;1254;139770;-69
2023/12/19 08:20:01;;;;;;;6.70;4.60;;;;;;;6.64;78.63;100092.16;219992;1253;139653;-69
2023/12/19 08:25:08;;;;;;;7.20;3.30;;;;;;;6.71;78.65;100087.98;219624;1254;142117;-68
2023/12/19 08:30:15;;;;;;;5.50;4.40;;;;;;;6.75;78.43;100097.66;218597;1254;139665;-68
2023/12/19 08:35:20;;;;;;;9.70;6.50;;;;;;;6.78;78.35;100093.44;219271;1254;140214;-69
2023/12/19 08:40:24;;;;;;;5.80;3.50;;;;;;;6.80;78.94;100095.48;218322;1255;139796;-68
2023/12/19 08:45:29;;;;;;;14.70;4.80;;;;;;;6.81;78.65;100084.56;218385;1254;140838;-69
2023/12/19 08:50:34;;;;;;;4.50;4.10;;;;;;;6.82;78.72;100081.59;219100;1253;140456;-68
2023/12/19 08:55:39;;;;;;;6.50;4.70;;;;;;;6.83;78.56;100067.33;218339;1254;140403;-69
2023/12/19 09:00:44;;;;;;;6.50;5.00;;;;;;;6.84;78.45;100054.69;218023;1254;139872;-68
2023/12/19 09:05:52;;;;;;;6.30;3.90;;;;;;;6.86;78.39;100048.73;218427;1256;139771;-68
2023/12/19 09:10:58;;;;;;;5.50;4.70;;;;;;;6.94;78.22;100030.61;218234;1256;140495;-68
2023/12/19 09:16:06;;;;;;;5.50;4.70;;;;;;;7.01;77.82;100006.88;217901;1256;139572;-68
2023/12/19 09:21:12;;;;;;;10.10;4.80;;;;;;;7.09;78.26;99994.20;217841;1254;139583;-69
2023/12/19 09:26:16;;;;;;;5.00;3.40;;;;;;;7.20;78.24;100000.70;218366;1256;139765;-68
2023/12/19 09:31:22;;;;;;;7.00;4.80;;;;;;;7.29;78.00;99992.48;219295;1253;140284;-69
2023/12/19 09:36:27;;;;;;;5.50;3.70;;;;;;;7.34;77.96;99995.44;218935;1254;139790;-69
2023/12/19 09:41:32;;;;;;;7.30;5.60;;;;;;;7.39;77.71;100017.79;219051;1256;140860;-69
2023/12/19 09:46:38;;;;;;;7.50;4.30;;;;;;;7.45;77.82;100017.90;219121;1254;140481;-69
2023/12/19 09:51:43;;;;;;;6.30;5.00;;;;;;;7.47;76.97;100011.05;219701;1255;139635;-68
2023/12/19 09:56:49;;;;;;;5.70;4.30;;;;;;;7.48;76.59;99993.78;220906;1254;139725;-69
2023/12/19 10:01:54;;;;;;;8.40;3.40;;;;;;;7.55;76.21;99982.59;220758;1254;140367;-69
2023/12/19 10:06:58;;;;;;;5.90;3.70;;;;;;;7.63;75.71;99977.41;220485;1257;140605;-69
2023/12/19 10:12:10;;;;;;;9.50;5.10;;;;;;;7.68;75.24;99979.30;219303;1257;139801;-68
2023/12/19 10:17:17;;;;;;;7.60;5.00;;;;;;;7.73;75.15;99967.52;219529;1254;139902;-69
2023/12/19 10:22:21;;;;;;;;;;;;;;;7.75;75.16;99957.77;219119;1254;139442;-69
2023/12/19 10:27:25;;;;;;;5.40;4.50;;;;;;;7.74;74.64;99948.34;220172;1254;125955;-69
2023/12/19 10:32:31;;;;;;;7.70;4.00;;;;;;;7.83;74.43;99940.71;219408;1254;140334;-69
2023/12/19 10:37:37;;;;;;;8.70;4.40;;;;;;;7.93;74.32;99950.76;219713;1253;139377;-68
2023/12/19 10:42:56;;;;;;;7.00;4.40;;;;;;;7.98;74.30;99943.80;218387;1254;139594;-69
2023/12/19 10:48:01;;;;;;;5.10;4.10;;;;;;;8.00;74.15;99929.58;218822;1254;140809;-69
2023/12/19 10:53:08;;;;;;;6.60;4.30;;;;;;;7.98;74.05;99917.30;218845;1254;141545;-70
2023/12/19 10:58:19;;;;;;;;;;;;;;;7.96;74.11;99913.41;218056;1254;139378;-71
2023/12/19 11:03:34;;;;;;;7.10;4.30;;;;;;;7.94;74.15;99903.63;218581;1257;126950;-71
2023/12/19 11:08:41;;;;;;;7.80;5.10;;;;;;;7.93;74.12;99901.39;218818;1256;140345;-68
2023/12/19 11:13:47;;;;;;;6.80;4.20;;;;;;;7.93;74.44;99885.50;218387;1254;140366;-68
2023/12/19 11:19:08;;;;;;;4.90;3.70;;;;;;;7.94;74.28;99869.30;217826;1259;140712;-68
2023/12/19 11:24:45;;;;;;;5.20;2.90;;;;;;;7.97;74.58;99854.41;217955;1254;139755;-68
2023/12/19 11:29:53;;;;;;;4.60;4.10;;;;;;;8.03;74.31;99845.80;218904;1254;139481;-68
2023/12/19 11:35:10;;;;;;;5.00;4.00;;;;;;;8.05;74.49;99839.23;218096;1254;140593;-68
2023/12/19 11:40:50;;;;;;;6.60;4.50;;;;;;;8.07;74.51;99820.82;219208;1254;139838;-68
2023/12/19 11:46:18;;;;;;;5.80;3.90;;;;;;;8.10;74.66;99810.95;218578;1254;139631;-69
2023/12/19 11:51:50;;;;;;;4.70;4.00;;;;;;;8.16;74.73;99805.03;218974;1255;139621;-68
2023/12/19 11:56:58;;;;;;;7.00;4.00;;;;;;;8.14;74.24;99792.10;221108;1254;140539;-69
2023/12/19 12:02:07;;;;;;;4.00;3.20;;;;;;;8.10;73.82;99773.45;220857;1255;140034;-70
2023/12/19 12:07:21;;;;;;;3.80;3.00;;;;;;;8.05;73.48;99770.59;220499;1254;141168;-69
2023/12/19 12:12:36;;;;;;;3.80;3.10;;;;;;;8.01;73.20;99766.87;220756;1253;139865;-68
2023/12/19 12:17:43;;;;;;;5.90;4.10;;;;;;;7.98;73.07;99772.31;219508;1254;141809;-68
2023/12/19 12:22:52;;;;;;;4.10;3.10;;;;;;;7.97;72.98;99764.03;219612;1254;140300;-68
2023/12/19 12:28:14;;;;;;;5.80;3.70;;;;;;;7.97;73.03;99755.46;218916;1258;142030;-68
2023/12/19 12:33:19;;;;;;;5.60;3.30;;;;;;;8.00;73.23;99748.83;218869;1255;139686;-69
2023/12/19 12:38:25;;;;;;;7.50;3.00;;;;;;;8.02;73.21;99750.20;218893;1254;139504;-68
2023/12/19 12:44:00;;;;;;;5.80;3.80;;;;;;;8.02;73.20;99735.77;218392;1255;140531;-68
2023/12/19 12:49:06;;;;;;;5.20;2.80;;;;;;;8.03;73.30;99710.77;219031;1254;140463;-68
2023/12/19 12:54:18;;;;;;;4.10;3.00;;;;;;;8.01;73.31;99703.94;218390;1257;139720;-68
2023/12/19 12:59:28;;;;;;;5.60;4.00;;;;;;;8.01;73.48;99689.64;217872;1255;238475;-68
2023/12/19 13:04:35;;;;;;;6.90;3.70;;;;;;;8.01;73.48;99677.71;218436;1254;140604;-68
2023/12/19 13:09:41;;;;;;;7.90;4.30;;;;;;;7.99;73.70;99666.21;218406;1257;140837;-68
2023/12/19 13:14:46;;;;;;;5.10;4.50;;;;;;;7.98;73.50;99651.17;218511;1254;139843;-68
2023/12/19 13:19:57;;;;;;;11.70;5.30;;;;;;;7.94;73.41;99640.28;219487;1254;140283;-68
2023/12/19 13:25:04;;;;;;;7.60;5.50;;;;;;;7.93;73.52;99630.08;217988;1254;140218;-68
2023/12/19 13:30:10;;;;;;;13.00;6.80;;;;;;;7.92;73.10;99622.63;219801;1257;140127;-69
2023/12/19 13:35:15;;;;;;;7.70;4.30;;;;;;;7.93;73.00;99618.11;218661;1255;139787;-68
2023/12/19 13:40:21;;;;;;;9.00;4.70;;;;;;;7.93;72.69;99612.45;218574;1257;139348;-68
2023/12/19 13:45:28;;;;;;;10.40;5.30;;;;;;;7.94;72.38;99598.62;219592;1256;140232;-69
2023/12/19 13:50:34;;;;;;;9.60;5.00;;;;;;;7.97;72.09;99590.92;218747;1254;139908;-69
2023/12/19 13:55:40;;;;;;;9.30;6.20;;;;;;;7.96;71.69;99587.31;219375;1257;152727;-68
2023/12/19 14:00:46;;;;;;;15.20;6.50;;;;;;;7.97;71.70;99596.61;221053;1254;141311;-69
2023/12/19 14:05:52;;;;;;;10.90;4.60;;;;;;;8.00;71.29;99608.39;220013;1256;140910;-69
2023/12/19 14:10:58;;;;;;;9.40;5.00;;;;;;;7.99;71.05;99615.63;219077;1259;139433;-68
2023/12/19 14:16:04;;;;;;;8.20;5.30;;;;;;;8.00;70.58;99605.08;218567;1258;140634;-68
2023/12/19 14:21:10;;;;;;;8.90;4.10;;;;;;;8.00;70.39;99609.12;220029;1254;140852;-70
2023/12/19 14:26:16;;;;;;;8.10;4.90;;;;;;;7.99;70.38;99592.79;218996;1254;139975;-68
2023/12/19 14:31:21;;;;;;;9.00;5.80;;;;;;;8.02;70.16;99581.63;218124;1254;139435;-69
2023/12/19 14:36:28;;;;;;;12.20;5.80;;;;;;;8.02;70.27;99580.14;219062;1254;140869;-66
2023/12/19 14:41:33;;;;;;;10.40;6.50;;;;;;;8.02;70.05;99584.02;218366;1255;140061;-68
2023/12/19 14:46:39;;;;;;;6.40;4.80;;;;;;;7.99;70.05;99580.31;218471;1256;138722;-68
2023/12/19 14:51:45;;;;;;;8.20;5.20;;;;;;;7.93;69.76;99566.14;217717;1257;138637;-67
2023/12/19 14:56:50;;;;;;;9.30;5.60;;;;;;;7.89;69.58;99560.26;218290;1254;141049;-68
2023/12/19 15:01:57;;;;;;;7.50;4.70;;;;;;;7.86;69.45;99561.77;218318;1257;139276;-67
2023/12/19 15:07:02;;;;;;;6.70;3.80;;;;;;;7.83;69.31;99544.77;217824;1254;139664;-67
2023/12/19 15:12:08;;;;;;;7.70;5.00;;;;;;;7.78;69.25;99534.77;217949;1257;140154;-67
2023/12/19 15:17:11;;;;;;;8.00;4.50;;;;;;;7.76;69.24;99523.52;219138;1256;140552;-69
2023/12/19 15:22:16;;;;;;;8.10;4.40;;;;;;;7.76;69.12;99515.77;217877;1254;139187;-69
2023/12/19 15:27:20;;;;;;;9.00;4.80;;;;;;;7.77;68.91;99495.27;217836;1259;139222;-69
2023/12/19 15:32:25;;;;;;;5.50;3.80;;;;;;;7.78;68.99;99484.84;219339;1254;139680;-70
2023/12/19 15:37:30;;;;;;;5.20;3.50;;;;;;;7.78;68.80;99483.17;218666;1256;139849;-71
2023/12/19 15:42:36;;;;;;;7.70;4.70;;;;;;;7.77;68.93;99475.46;218887;1254;346973;-69
2023/12/19 15:47:42;;;;;;;6.80;2.80;;;;;;;7.78;68.72;99479.73;219488;1256;140490;-69
2023/12/19 15:52:49;;;;;;;3.60;3.20;;;;;;;7.80;68.85;99483.07;218994;1259;140453;-68
2023/12/19 15:58:00;;;;;;;6.60;4.30;;;;;;;7.80;68.52;99475.96;218557;1259;141869;-68
2023/12/19 16:03:06;;;;;;;7.00;4.30;;;;;;;7.78;68.50;99469.75;218655;1254;139784;-69
2023/12/19 16:08:14;;;;;;;5.60;3.80;;;;;;;7.75;68.70;99476.09;219785;1254;139794;-69
2023/12/19 16:13:21;;;;;;;7.00;3.30;;;;;;;7.73;69.02;99480.16;219481;1254;140582;-69
2023/12/19 16:18:25;;;;;;;;;;;;;;;7.71;69.13;99475.81;218353;1254;139548;-69
2023/12/19 16:23:30;;;;;;;6.00;4.70;;;;;;;7.67;68.87;99485.30;219673;1254;125559;-69
2023/12/19 16:28:36;;;;;;;5.50;3.80;;;;;;;7.65;69.11;99485.89;218521;1259;140358;-70
2023/12/19 16:33:41;;;;;;;15.50;9.90;;;;;;;7.65;69.30;99475.33;219061;1259;139427;-70
2023/12/19 16:38:48;;;;;;;10.80;8.00;;;;;;;7.60;69.08;99480.21;218605;1255;139777;-69
2023/12/19 16:43:55;;;;;;;8.50;6.20;;;;;;;7.59;69.14;99461.90;218122;1254;139741;-68
2023/12/19 16:49:01;;;;;;;7.60;6.30;;;;;;;7.59;69.17;99459.41;218400;1255;139625;-69
2023/12/19 16:54:07;;;;;;;8.70;5.90;;;;;;;7.59;68.94;99457.45;218730;1257;140247;-70
2023/12/19 16:59:13;;;;;;;9.30;7.20;;;;;;;7.59;68.95;99458.46;217931;1256;140152;-70
2023/12/19 17:04:22;;;;;;;9.60;4.50;;;;;;;7.58;68.90;99456.48;218727;1254;139687;-70
2023/12/19 17:09:32;;;;;;;8.40;5.60;;;;;;;7.53;68.91;99436.80;218768;1254;139196;-69
2023/12/19 17:14:43;;;;;;;9.00;5.40;;;;;;;7.48;68.82;99428.15;218248;1257;140591;-68
2023/12/19 17:19:53;;;;;;;8.00;4.80;;;;;;;7.45;69.40;99427.12;219158;1257;139742;-70
2023/12/19 17:24:58;;;;;;;11.50;5.40;;;;;;;7.38;69.37;99424.01;218286;1254;139389;-69
2023/12/19 17:30:05;;;;;;;8.80;5.80;;;;;;;7.32;69.63;99432.73;218144;1257;139556;-69
2023/12/19 17:35:10;;;;;;;17.20;6.30;;;;;;;7.28;70.15;99434.91;218868;1260;140189;-68
2023/12/19 17:40:20;;;;;;;11.40;6.00;;;;;;;7.20;70.46;99441.45;218373;1259;140597;-67
2023/12/19 17:45:28;;;;;;;10.20;6.80;;;;;;;7.12;71.06;99441.05;220304;1254;139597;-68
2023/12/19 17:50:33;;;;;;;10.00;7.00;;;;;;;7.05;71.18;99428.64;219280;1254;142340;-69
2023/12/19 17:55:38;;;;;;;8.60;5.80;;;;;;;7.01;72.08;99432.99;219143;1254;139739;-69
2023/12/19 18:00:42;;;;;;;10.90;6.30;;;;;;;6.96;72.74;99417.37;219529;1254;139962;-69
2023/12/19 18:05:47;;;;;;;9.50;5.80;;;;;;;6.90;73.01;99415.44;218258;1258;140675;-68
2023/12/19 18:10:51;;;;;;;10.60;5.80;;;;;;;6.88;72.99;99406.36;219548;1254;139882;-69
2023/12/19 18:15:56;;;;;;;14.90;7.10;;;;;;;6.83;73.77;99401.43;219654;1254;139807;-71
2023/12/19 18:21:07;;;;;;;13.20;7.80;;;;;;;6.82;74.11;99393.61;218520;1254;140585;-68
2023/12/19 18:26:13;;;;;;;12.30;5.90;;;;;;;6.79;74.69;99400.20;218556;1254;139588;-69
2023/12/19 18:31:24;;;;;;;8.70;5.90;;;;;;;6.74;74.53;99395.61;218397;1254;139654;-68
2023/12/19 18:36:33;;;;;;;10.90;7.00;;;;;;;6.69;75.14;99382.42;217970;1254;139570;-69
2023/12/19 18:41:39;;;;;;;11.70;6.50;;;;;;;6.68;75.52;99379.73;219179;1254;141083;-68
2023/12/19 18:46:45;;;;;;;11.40;7.00;;;;;;;6.65;75.50;99377.37;218889;1257;139736;-69
2023/12/19 18:51:53;;;;;;;10.80;7.20;;;;;;;6.60;75.56;99373.45;218080;1257;140426;-68
2023/12/19 18:56:58;;;;;;;11.10;8.30;;;;;;;6.57;75.91;99367.98;218886;1254;139512;-69
2023/12/19 19:02:03;;;;;;;13.80;6.90;;;;;;;6.51;76.25;99365.09;219147;1257;139451;-70
2023/12/19 19:07:07;;;;;;;9.70;5.50;;;;;;;6.46;76.41;99360.77;219117;1257;142903;-68
2023/12/19 19:12:11;;;;;;;10.00;6.00;;;;;;;6.42;76.64;99360.17;218199;1254;139325;-70
2023/12/19 19:17:16;;;;;;;14.60;8.60;;;;;;;6.38;77.03;99356.27;217973;1254;139317;-69
2023/12/19 19:22:20;;;;;;;11.40;6.90;;;;;;;6.35;77.42;99351.47;218895;1254;140040;-69
2023/12/19 19:27:26;;;;;;;12.50;7.10;;;;;;;6.26;77.87;99345.96;218827;1254;139653;-69
2023/12/19 19:32:31;;;;;;;10.10;7.10;;;;;;;6.25;77.87;99340.80;219404;1254;139404;-69
2023/12/19 19:37:35;;;;;;;14.10;7.10;;;;;;;6.23;78.40;99340.61;219346;1256;142124;-69
2023/12/19 19:42:40;;;;;;;14.50;6.90;;;;;;;6.18;78.98;99334.13;219410;1254;141482;-68
2023/12/19 19:48:11;;;;;;;10.40;7.90;;;;;;;6.12;79.60;99325.47;217830;1257;139646;-68
2023/12/19 19:53:20;;;;;;;13.10;8.30;;;;;;;6.10;80.13;99317.23;219599;1254;139693;-68
2023/12/19 19:58:26;;;;;;;8.10;5.80;;;;;;;6.10;80.45;99311.05;220463;1255;139674;-68
2023/12/19 20:03:30;;;;;;;11.90;7.60;;;;;;;6.10;80.72;99308.61;220547;1254;140168;-68
2023/12/19 20:08:35;;;;;;;9.40;6.50;;;;;;;6.07;80.82;99305.17;220608;1255;141244;-68
2023/12/19 20:13:40;;;;;;;13.10;7.90;;;;;;;6.07;81.45;99309.20;220452;1254;139678;-67
2023/12/19 20:18:48;;;;;;;16.30;10.10;;;;;;;6.09;81.47;99304.34;220749;1253;140022;-68
2023/12/19 20:23:52;;;;;;;12.90;8.00;;;;;;;6.08;81.74;99298.11;220138;1254;140100;-66
2023/12/19 20:28:58;;;;;;;12.50;7.60;;;;;;;6.06;81.98;99288.44;218976;1254;139729;-69
2023/12/19 20:34:03;;;;;;;12.10;7.50;;;;;;;6.04;82.18;99284.39;218564;1257;139849;-67
2023/12/19 20:39:08;;;;;;;9.20;7.50;;;;;;;6.02;82.42;99271.50;218207;1257;139679;-70
2023/12/19 20:44:13;;;;;;;13.90;7.80;;;;;;;5.99;82.81;99266.27;218956;1254;139975;-68
2023/12/19 20:49:18;;;;;;;14.70;7.30;;;;;;;5.96;82.76;99257.71;218151;1254;140558;-68
2023/12/19 20:54:22;;;;;;;12.10;8.70;;;;;;;5.90;83.20;99257.58;218248;1254;141348;-68
2023/12/19 20:59:26;;;;;;;11.90;7.50;;;;;;;5.82;83.22;99256.80;218903;1254;140653;-68
2023/12/19 21:04:32;;;;;;;10.90;8.60;;;;;;;5.75;83.46;99253.95;218349;1254;140223;-68
2023/12/19 21:09:37;;;;;;;11.70;8.10;;;;;;;5.70;84.13;99248.61;218381;1254;140001;-68
2023/12/19 21:14:42;;;;;;;9.30;7.00;;;;;;;5.67;84.33;99239.63;218184;1254;140652;-70
2023/12/19 21:19:45;;;;;;;12.80;7.80;;;;;;;5.66;84.56;99229.91;218049;1255;140092;-68
2023/12/19 21:24:52;;;;;;;13.10;7.90;;;;;;;5.66;84.81;99222.35;218096;1254;139972;-68
2023/12/19 21:29:58;;;;;;;12.90;7.70;;;;;;;5.65;85.03;99219.35;217772;1254;140251;-68
2023/12/19 21:35:06;;;;;;;9.00;6.60;;;;;;;5.63;85.34;99214.33;218308;1254;140149;-66
2023/12/19 21:40:16;;;;;;;16.00;9.10;;;;;;;5.61;85.64;99209.33;218650;1254;140245;-67
2023/12/19 21:45:21;;;;;;;10.20;8.50;;;;;;;5.60;85.89;99203.27;218563;1256;140659;-67
2023/12/19 21:50:28;;;;;;;11.00;7.10;;;;;;;5.61;85.99;99189.64;220693;1254;139742;-69
2023/12/19 21:55:33;;;;;;;10.90;9.30;;;;;;;5.60;86.23;99181.59;220478;1254;141537;-69
2023/12/19 22:00:37;;;;;;;15.20;9.50;;;;;;;5.60;86.50;99175.04;219322;1254;140820;-68
2023/12/19 22:05:43;;;;;;;13.40;9.00;;;;;;;5.60;86.53;99175.93;219435;1257;141101;-69
2023/12/19 22:11:10;;;;;;;15.60;8.60;;;;;;;5.60;86.76;99176.79;219683;1256;140916;-68
2023/12/19 22:16:21;;;;;;;15.70;10.00;;;;;;;5.61;86.88;99175.80;218811;1254;139766;-69
2023/12/19 22:21:27;;;;;;;13.80;8.90;;;;;;;5.57;86.83;99175.52;218189;1257;140304;-67
2023/12/19 22:26:32;;;;;;;13.80;8.70;;;;;;;5.55;87.71;99167.31;218978;1255;139695;-68
2023/12/19 22:31:38;;;;;;;11.60;9.50;;;;;;;5.56;87.63;99164.95;218520;1253;139420;-67
2023/12/19 22:36:44;;;;;;;13.20;9.10;;;;;;;5.56;88.09;99151.94;219550;1253;140122;-69
2023/12/19 22:41:51;;;;;;;11.90;8.70;;;;;;;5.56;88.24;99141.84;218393;1253;140212;-67
2023/12/19 22:46:56;;;;;;;13.30;9.50;;;;;;;5.57;88.91;99136.86;218613;1256;139728;-67
2023/12/19 22:52:01;;;;;;;13.40;8.70;;;;;;;5.59;88.99;99129.94;218210;1253;141405;-68
2023/12/19 22:57:06;;;;;;;11.80;8.80;;;;;;;5.59;88.95;99120.64;218099;1253;140562;-68
2023/12/19 23:02:10;;;;;;;11.60;10.20;;;;;;;5.59;89.30;99123.23;218906;1252;140186;-67
2023/12/19 23:07:15;;;;;;;10.50;8.00;;;;;;;5.60;89.68;99116.76;219029;1254;139379;-66
2023/12/19 23:12:20;;;;;;;10.50;8.00;;;;;;;5.62;89.94;99111.21;218386;1253;140555;-67
2023/12/19 23:17:25;;;;;;;9.40;8.30;;;;;;;5.65;90.08;99107.29;218920;1253;140957;-67
2023/12/19 23:22:30;;;;;;;12.60;8.60;;;;;;;5.67;90.10;99100.42;218253;1253;139219;-67
2023/12/19 23:27:35;;;;;;;10.10;8.00;;;;;;;5.69;90.38;99097.64;219561;1253;140699;-67
2023/12/19 23:32:39;;;;;;;11.40;7.10;;;;;;;5.70;90.45;99101.41;218220;1254;139643;-67